Wolfe, West Virginia
Current Conditions -  °F | °C
As of 5:52 AM on Sunday 26 Oct 2014 (Local Time) from KBLF Reporting Station
Broken Clouds Broken Clouds  
Wind Chill: 13°   Ceiling: 1200
Heat Index: 13°   Visibility: 10mi
Dew Point: 10°   Wind: 12mph
Humidity: 80%   Direction: 300°WNW
Pressure: 29.94"   Gusts: 23mph
Location:  37.31°N, 81.33°W
Report Text: KBLF 260952Z AUTO 30010G20KT 260V330 10SM BKN012 BKN019 13/10 A2994 RMK AO2 SLP118 T01330100
Loading
Personal Weather Stations






























Interactive Weather Map
Tropical Storm Tracking
New forecast layout! Learn more

10-Day Weather Forecast

Advertisements
Track Severe Weather on mobile